This is the latest recevied weather packets stored in our database for station/object SP2CDN-10. If no packets are shown the sender has not sent any weather packets the latest 10 day(s).
| Time | Temp. | Humidity | Pressure | Rain* | Wind** | Luminosity | Snow |
|---|---|---|---|---|---|---|---|
| 1777053407 | 15.56° C | 39% | 1010.6 hPa | - | - | - | - |
| 1777051126 | 16.11° C | 37% | 1010.3 hPa | - | - | - | - |
| 1777048840 | 17.22° C | 35% | 1010.4 hPa | - | - | - | - |
| 1777046558 | 17.22° C | 34% | 1010.6 hPa | - | - | - | - |
| 1777044276 | 17.78° C | 33% | 1010.8 hPa | - | - | - | - |
| 1777041995 | 18.89° C | 31% | 1010.8 hPa | - | - | - | - |
| 1777040347 | 18.33° C | 31% | 1011 hPa | - | - | - | - |
| 1777038065 | 19.44° C | 30% | 1011.2 hPa | - | - | - | - |
| 1777035784 | 22.78° C | 28% | 1011.4 hPa | - | - | - | - |
| 1777033502 | 19.44° C | 31% | 1011.6 hPa | - | - | - | - |
| 1777031221 | 19.44° C | 34% | 1011.8 hPa | - | - | - | - |
| 1777028939 | 18.33° C | 36% | 1012.3 hPa | - | - | - | - |
| 1777026657 | 18.33° C | 40% | 1012.2 hPa | - | - | - | - |
| 1777024374 | 16.11° C | 46% | 1012.2 hPa | - | - | - | - |
| 1777022093 | 15° C | 49% | 1012.4 hPa | - | - | - | - |
| 1777019811 | 13.33° C | 54% | 1012.6 hPa | - | - | - | - |
| 1777017529 | 12.22° C | 57% | 1012.5 hPa | - | - | - | - |
| 1777015247 | 11.11° C | 62% | 1012.5 hPa | - | - | - | - |
| 1777012966 | 10° C | 70% | 1012.5 hPa | - | - | - | - |
| 1777010684 | 7.22° C | 81% | 1012.6 hPa | - | - | - | - |
| 1777008403 | 6.67° C | 82% | 1012.9 hPa | - | - | - | - |
| 1777006121 | 6.11° C | 83% | 1012.9 hPa | - | - | - | - |
| 1777003840 | 5.56° C | 81% | 1012.8 hPa | - | - | - | - |
| 1777001558 | 6.11° C | 77% | 1012.6 hPa | - | - | - | - |
* Rain since midnight (hover to see other rain measurements)
** Current wind speed in m/s (hover to see current wind gust speed)